Time;durP1;ratioP1;P1;durP2;ratioP2;P2;SDS_P1;SDS_P2;PMS_P1;PMS_P2;Temp;Humidity;BMP_temperature;BMP_pressure;BME280_temperature;BME280_humidity;BME280_pressure;Samples;Min_cycle;Max_cycle;Signal;HPM_P1;HPM_P2
2023/03/23 00:01:04;;;;;;;;;4.25;2.00;;;;;12.97;84.49;99972.94;5141720;27;45403;-62
2023/03/23 00:03:31;;;;;;;;;4.00;4.00;;;;;12.87;85.06;99963.72;5141693;27;46355;-63
2023/03/23 00:06:04;;;;;;;;;5.00;3.00;;;;;12.93;84.51;99976.63;5141283;27;45391;-62
2023/03/23 00:08:33;;;;;;;;;2.00;2.00;;;;;12.94;84.60;99981.00;5141542;27;45343;-62
2023/03/23 00:11:00;;;;;;;;;3.00;3.00;;;;;12.93;85.13;99978.44;5132997;27;46300;-62
2023/03/23 00:13:27;;;;;;;;;3.00;3.00;;;;;12.93;84.96;99981.94;5120753;27;46106;-62
2023/03/23 00:15:53;;;;;;;;;2.00;1.75;;;;;12.85;84.82;99981.41;5120585;27;45356;-62
2023/03/23 00:18:22;;;;;;;;;2.75;2.75;;;;;12.92;85.32;99988.13;5120990;27;45875;-62
2023/03/23 00:20:56;;;;;;;;;4.00;3.25;;;;;12.88;85.09;99974.22;5121295;27;45382;-62
2023/03/23 00:23:25;;;;;;;;;4.00;2.25;;;;;12.94;85.27;99978.38;5120725;27;46626;-62
2023/03/23 00:25:56;;;;;;;;;2.00;2.00;;;;;12.96;85.04;99978.28;5120454;27;45622;-62
2023/03/23 00:28:24;;;;;;;;;2.25;2.25;;;;;12.98;85.09;99973.78;5120720;27;45211;-62
2023/03/23 00:30:59;;;;;;;;;2.75;2.75;;;;;12.94;84.80;99980.13;5120938;27;45408;-62
2023/03/23 00:33:27;;;;;;;;;0.75;0.75;;;;;12.94;85.12;99972.19;5120830;27;45666;-62
2023/03/23 00:35:54;;;;;;;;;2.50;2.50;;;;;12.87;85.14;99966.34;5120660;27;45348;-62
2023/03/23 00:38:20;;;;;;;;;2.00;2.00;;;;;12.84;85.17;99967.34;5120500;27;45478;-62
2023/03/23 00:40:47;;;;;;;;;2.00;2.00;;;;;12.86;85.33;99980.47;5102219;27;45515;-62
2023/03/23 00:43:15;;;;;;;;;2.75;2.75;;;;;12.79;85.65;99971.13;5120501;27;45636;-62
2023/03/23 00:45:40;;;;;;;;;3.75;2.75;;;;;12.79;85.32;99974.59;5120458;27;45453;-62
2023/03/23 00:48:06;;;;;;;;;2.50;2.50;;;;;12.81;85.30;99975.41;5120414;27;45341;-62
2023/03/23 00:50:31;;;;;;;;;3.25;3.00;;;;;12.63;85.45;99937.44;5120248;27;45467;-62
2023/03/23 00:52:57;;;;;;;;;5.25;3.00;;;;;12.81;85.00;99956.03;5120479;27;46263;-62
2023/03/23 00:55:24;;;;;;;;;2.50;2.25;;;;;12.81;85.01;99959.56;5120388;27;45454;-62
2023/03/23 00:57:50;;;;;;;;;2.00;2.00;;;;;12.76;84.83;99948.31;5120452;27;45487;-62
2023/03/23 01:00:16;;;;;;;;;3.00;1.50;;;;;12.83;85.12;99954.22;5120440;27;45451;-62
2023/03/23 01:02:44;;;;;;;;;2.00;2.00;;;;;12.78;85.27;99945.63;5119991;27;46534;-62
2023/03/23 01:05:10;;;;;;;;;3.75;2.00;;;;;12.78;84.79;99930.66;5119969;27;45300;-62
2023/03/23 01:07:36;;;;;;;;;2.25;2.25;;;;;12.76;84.88;99924.56;5120398;27;45261;-62
2023/03/23 01:10:02;;;;;;;;;2.50;2.00;;;;;12.66;85.30;99910.94;5120232;27;45443;-62
2023/03/23 01:12:28;;;;;;;;;2.00;2.00;;;;;12.73;85.03;99915.94;5119997;27;45407;-62
2023/03/23 01:14:53;;;;;;;;;2.00;2.00;;;;;12.78;84.84;99929.75;5119907;27;45334;-62
2023/03/23 01:17:19;;;;;;;;;2.25;1.75;;;;;12.75;84.45;99925.50;5120253;27;45371;-62
2023/03/23 01:19:45;;;;;;;;;2.00;2.00;;;;;12.62;84.82;99901.41;5120363;27;45308;-62
2023/03/23 01:22:10;;;;;;;;;2.00;2.00;;;;;12.82;84.20;99941.91;5119509;27;46665;-62
2023/03/23 01:24:35;;;;;;;;;3.25;2.00;;;;;12.79;84.31;99950.81;5120102;27;45428;-62
2023/03/23 01:27:06;;;;;;;;;1.25;1.25;;;;;12.83;83.96;99951.56;5119502;27;45492;-62
2023/03/23 01:29:32;;;;;;;;;1.00;1.00;;;;;12.87;83.29;99950.50;5120115;27;45442;-62
2023/03/23 01:31:58;;;;;;;;;1.50;0.00;;;;;12.86;83.36;99952.28;5119711;27;46126;-62
2023/03/23 01:34:23;;;;;;;;;2.25;2.25;;;;;12.85;83.08;99954.97;5119707;27;45471;-62
2023/03/23 01:36:49;;;;;;;;;1.00;1.00;;;;;12.85;82.87;99958.50;5120002;27;45493;-62
2023/03/23 01:39:14;;;;;;;;;3.25;3.00;;;;;12.88;82.43;99968.06;5100428;27;45253;-62
2023/03/23 01:41:41;;;;;;;;;1.00;1.00;;;;;12.87;82.31;99979.56;5119599;27;45974;-62
2023/03/23 01:44:28;;;;;;;;;1.00;1.00;;;;;12.85;82.22;99961.16;5119551;27;45310;-62
2023/03/23 01:46:54;;;;;;;;;3.00;1.00;;;;;12.92;81.66;99959.06;5119582;27;45280;-62
2023/03/23 01:49:28;;;;;;;;;1.00;1.00;;;;;12.93;81.29;99960.78;5119401;27;45441;-62
2023/03/23 01:51:59;;;;;;;;;2.00;2.00;;;;;12.85;81.18;99952.34;5119168;27;46406;-62
2023/03/23 01:54:26;;;;;;;;;3.75;1.00;;;;;12.88;81.07;99947.78;5119476;27;45366;-62
2023/03/23 01:56:58;;;;;;;;;2.00;1.00;;;;;12.95;80.82;99966.84;5119386;27;45361;-62
2023/03/23 01:59:27;;;;;;;;;0.75;0.75;;;;;12.84;80.59;99940.94;5119729;27;45330;-62
2023/03/23 02:01:55;;;;;;;;;2.00;1.00;;;;;12.96;80.56;99959.81;5119264;27;46464;-62
2023/03/23 02:04:24;;;;;;;;;1.25;1.25;;;;;12.88;80.40;99946.91;5119133;27;45419;-62
2023/03/23 02:06:51;;;;;;;;;2.25;1.00;;;;;12.92;81.01;99953.78;5119456;27;45578;-62
2023/03/23 02:09:17;;;;;;;;;2.75;0.75;;;;;12.91;80.63;99945.94;5119472;27;45234;-62
2023/03/23 02:11:44;;;;;;;;;3.00;0.50;;;;;12.93;80.40;99950.22;5118700;27;46425;-62
2023/03/23 02:14:09;;;;;;;;;2.00;2.00;;;;;12.98;80.42;99953.53;5118364;27;45418;-62
2023/03/23 02:16:58;;;;;;;;;2.00;2.00;;;;;12.96;80.57;99965.94;5118996;27;45413;-62
2023/03/23 02:19:32;;;;;;;;;1.00;1.00;;;;;13.00;80.63;99964.88;5119216;27;45305;-62
2023/03/23 02:22:26;;;;;;;;;2.00;1.00;;;;;12.99;80.46;99964.94;5118913;27;46473;-62
2023/03/23 02:25:03;;;;;;;;;1.50;1.00;;;;;13.00;80.99;99966.66;5119036;27;45373;-62
2023/03/23 02:27:44;;;;;;;;;1.00;1.00;;;;;13.01;80.47;99974.53;5118510;27;45431;-62
2023/03/23 02:30:13;;;;;;;;;3.00;1.50;;;;;13.00;80.88;99971.94;5119023;27;45422;-62
2023/03/23 02:32:59;;;;;;;;;1.00;1.00;;;;;13.01;80.89;99968.34;5118764;27;46158;-62
2023/03/23 02:35:37;;;;;;;;;4.00;1.00;;;;;12.94;80.89;99945.78;5103620;27;45335;-62
2023/03/23 02:38:09;;;;;;;;;1.00;1.00;;;;;13.00;80.63;99958.75;5118792;27;45406;-62
2023/03/23 02:40:45;;;;;;;;;2.50;2.25;;;;;12.92;80.45;99942.38;5118568;27;45328;-62
2023/03/23 02:43:15;;;;;;;;;0.00;0.00;;;;;12.90;80.66;99945.06;5118633;27;46323;-62
2023/03/23 02:45:43;;;;;;;;;1.00;1.00;;;;;12.86;80.99;99938.22;5118567;27;45423;-62
2023/03/23 02:48:10;;;;;;;;;3.50;0.25;;;;;12.97;80.77;99951.81;5118438;27;45657;-62
2023/03/23 02:50:38;;;;;;;;;0.50;0.50;;;;;12.96;81.18;99939.50;5118802;27;45391;-62
2023/03/23 02:53:09;;;;;;;;;2.00;1.00;;;;;12.97;81.19;99948.28;5116632;27;46715;-62
2023/03/23 02:55:40;;;;;;;;;1.00;1.00;;;;;12.96;81.24;99949.22;5118290;27;45394;-62
2023/03/23 02:58:06;;;;;;;;;1.00;1.00;;;;;12.98;81.26;99955.28;5118480;27;45505;-62
2023/03/23 03:00:31;;;;;;;;;2.00;2.00;;;;;12.95;81.33;99942.22;5118674;27;45458;-62
2023/03/23 03:02:57;;;;;;;;;1.00;1.00;;;;;12.97;81.46;99954.44;5118406;27;45603;-62
2023/03/23 03:05:34;;;;;;;;;1.00;1.00;;;;;12.96;81.25;99958.00;5118621;27;45454;-62
2023/03/23 03:08:26;;;;;;;;;1.00;1.00;;;;;12.98;80.76;99953.53;5118589;27;45299;-62
2023/03/23 03:11:09;;;;;;;;;2.50;0.75;;;;;12.99;81.07;99935.88;5118728;27;45427;-62
2023/03/23 03:13:51;;;;;;;;;3.00;1.00;;;;;12.94;80.52;99944.00;5118122;27;47033;-62
2023/03/23 03:16:16;;;;;;;;;1.00;1.00;;;;;12.92;80.93;99952.94;5118173;27;45539;-62
2023/03/23 03:18:56;;;;;;;;;2.00;1.00;;;;;12.84;80.49;99935.66;5118714;27;45179;-62
2023/03/23 03:21:27;;;;;;;;;3.75;1.00;;;;;12.92;80.10;99951.13;5118616;27;45276;-62
2023/03/23 03:23:58;;;;;;;;;2.00;1.00;;;;;12.87;79.90;99937.28;5109836;27;47104;-62
2023/03/23 03:26:26;;;;;;;;;1.75;0.25;;;;;12.85;79.65;99944.41;5111366;27;45636;-62
2023/03/23 03:28:53;;;;;;;;;1.00;1.00;;;;;12.87;79.71;99950.50;5101257;27;45317;-62
2023/03/23 03:31:25;;;;;;;;;1.00;0.00;;;;;12.80;80.03;99933.22;5101420;27;45273;-62
2023/03/23 03:33:51;;;;;;;;;2.00;1.00;;;;;12.85;79.63;99939.13;5101224;27;45274;-62
2023/03/23 03:36:21;;;;;;;;;1.75;1.00;;;;;12.88;79.86;99950.44;5101127;27;45612;-62
2023/03/23 03:38:50;;;;;;;;;1.75;1.00;;;;;12.89;79.11;99960.09;5101289;27;45317;-62
2023/03/23 03:41:17;;;;;;;;;2.00;2.00;;;;;12.89;79.30;99962.72;5101531;27;45427;-62
2023/03/23 03:43:42;;;;;;;;;2.00;2.00;;;;;12.91;79.27;99969.69;5100448;27;45236;-62
2023/03/23 03:46:08;;;;;;;;;2.50;2.50;;;;;12.74;78.95;99930.84;5100920;27;45399;-62
2023/03/23 03:48:33;;;;;;;;;2.00;1.00;;;;;12.89;79.54;99946.88;5101043;27;45247;-62
2023/03/23 03:51:00;;;;;;;;;2.00;1.00;;;;;12.84;79.73;99954.13;5101081;27;45233;-62
2023/03/23 03:53:26;;;;;;;;;5.00;2.00;;;;;12.83;79.57;99948.91;5100742;27;47254;-63
2023/03/23 03:55:55;;;;;;;;;1.00;1.00;;;;;12.85;79.76;99955.88;5100938;27;45447;-62
2023/03/23 03:58:21;;;;;;;;;2.00;1.00;;;;;12.81;79.46;99942.84;5100807;27;45449;-62
2023/03/23 04:00:50;;;;;;;;;1.00;1.00;;;;;12.78;79.62;99933.28;5101096;27;45469;-62
2023/03/23 04:03:16;;;;;;;;;2.00;2.00;;;;;12.86;79.44;99954.91;5100588;27;46997;-62
2023/03/23 04:05:44;;;;;;;;;1.00;0.00;;;;;12.87;79.09;99953.16;5100672;27;45315;-63
2023/03/23 04:08:10;;;;;;;;;6.75;2.00;;;;;12.82;79.05;99958.66;5100842;27;45292;-62
2023/03/23 04:10:37;;;;;;;;;4.00;2.00;;;;;12.87;79.04;99958.44;5100547;27;45255;-62
2023/03/23 04:13:04;;;;;;;;;3.00;1.00;;;;;12.83;79.01;99951.56;5100285;27;45327;-62
2023/03/23 04:15:30;;;;;;;;;1.50;1.00;;;;;12.88;78.94;99955.72;5100489;27;45462;-62
2023/03/23 04:17:56;;;;;;;;;2.00;0.75;;;;;12.86;79.10;99948.78;5100643;27;45552;-62
2023/03/23 04:20:22;;;;;;;;;0.00;0.00;;;;;12.82;79.17;99948.06;5100798;27;45304;-62
2023/03/23 04:22:51;;;;;;;;;1.00;1.00;;;;;12.84;79.37;99948.00;5100398;27;46498;-62
2023/03/23 04:25:22;;;;;;;;;3.00;1.50;;;;;12.76;78.99;99929.84;5100356;27;45228;-62
2023/03/23 04:27:52;;;;;;;;;1.00;0.75;;;;;12.84;79.28;99956.78;5100520;27;45356;-62
2023/03/23 04:30:22;;;;;;;;;1.00;1.00;;;;;12.82;79.37;99949.84;5100495;27;45356;-62
2023/03/23 04:32:51;;;;;;;;;1.00;1.00;;;;;12.80;79.12;99946.44;5100147;27;46544;-62
2023/03/23 04:35:20;;;;;;;;;2.00;1.00;;;;;12.80;79.58;99949.91;5099680;27;45231;-62
2023/03/23 04:37:46;;;;;;;;;2.00;2.00;;;;;12.83;79.56;99959.50;5100336;27;45662;-62
2023/03/23 04:40:14;;;;;;;;;0.25;0.25;;;;;12.75;79.52;99951.91;5100321;27;45426;-62
2023/03/23 04:42:41;;;;;;;;;0.50;0.50;;;;;12.82;79.22;99953.34;5099961;27;47060;-62
2023/03/23 04:45:08;;;;;;;;;0.00;0.00;;;;;12.82;79.34;99955.13;5099247;27;45360;-62
2023/03/23 04:47:40;;;;;;;;;1.00;1.00;;;;;12.82;79.27;99956.00;5100131;27;45473;-62
2023/03/23 04:50:11;;;;;;;;;2.25;0.75;;;;;12.82;79.11;99957.75;5100135;27;45383;-62
2023/03/23 04:52:38;;;;;;;;;9.50;9.00;;;;;12.60;79.12;99923.53;5099826;27;46336;-62
2023/03/23 04:55:08;;;;;;;;;2.25;2.00;;;;;12.82;79.07;99958.66;5099870;27;45436;-62
2023/03/23 04:57:34;;;;;;;;;1.25;1.25;;;;;12.82;78.67;99961.28;5099961;27;45473;-62
2023/03/23 05:00:01;;;;;;;;;2.50;1.50;;;;;12.80;79.15;99959.63;5099993;27;45244;-62
2023/03/23 05:02:29;;;;;;;;;7.00;1.00;;;;;12.73;79.05;99948.47;5099838;27;45418;-62
2023/03/23 05:04:56;;;;;;;;;1.50;1.50;;;;;12.75;79.17;99940.47;5099675;27;45358;-62
2023/03/23 05:07:22;;;;;;;;;1.25;1.00;;;;;12.77;79.08;99950.06;5099839;27;45333;-62
2023/03/23 05:09:48;;;;;;;;;4.50;2.00;;;;;12.73;79.26;99953.75;5100069;27;45217;-62
2023/03/23 05:12:14;;;;;;;;;2.50;1.50;;;;;12.63;79.53;99945.38;5099491;27;45287;-62
2023/03/23 05:14:41;;;;;;;;;1.75;1.00;;;;;12.70;79.79;99962.66;5099300;27;45233;-62
2023/03/23 05:17:07;;;;;;;;;8.67;8.67;;;;;12.68;79.85;99953.97;5099769;27;45394;-62
2023/03/23 05:19:33;;;;;;;;;3.00;2.00;;;;;12.74;79.30;99963.41;5099694;27;45509;-62
2023/03/23 05:22:02;;;;;;;;;3.00;2.00;;;;;12.76;79.11;99989.75;5099470;27;46122;-62
2023/03/23 05:24:32;;;;;;;;;1.50;1.00;;;;;12.76;79.27;99979.19;5099420;27;45380;-62
2023/03/23 05:26:58;;;;;;;;;2.50;2.00;;;;;12.74;79.23;99988.97;5099360;27;45393;-62
2023/03/23 05:29:24;;;;;;;;;4.25;2.00;;;;;12.74;79.82;99997.75;5099553;27;45553;-62
2023/03/23 05:31:49;;;;;;;;;2.75;1.75;;;;;12.72;80.02;100007.50;5099129;27;47213;-62
2023/03/23 05:34:15;;;;;;;;;1.00;1.00;;;;;12.71;81.12;100011.09;5099430;27;45513;-62
2023/03/23 05:36:43;;;;;;;;;0.25;0.25;;;;;12.70;81.90;100026.06;5099552;27;45443;-62
2023/03/23 05:39:10;;;;;;;;;1.00;1.00;;;;;12.75;82.74;100043.50;5099254;27;45282;-62
2023/03/23 05:41:36;;;;;;;;;3.75;2.00;;;;;12.69;82.96;100034.06;5099164;27;45381;-62
2023/03/23 05:44:02;;;;;;;;;2.00;0.00;;;;;12.74;81.78;100053.22;5098930;27;45323;-62
2023/03/23 05:46:27;;;;;;;;;1.00;1.00;;;;;12.60;82.18;100040.59;5099122;27;45516;-62
2023/03/23 05:48:54;;;;;;;;;2.00;0.00;;;;;12.58;81.42;100034.53;5098071;27;45365;-62
2023/03/23 05:51:19;;;;;;;;;0.75;0.75;;;;;12.55;81.16;100050.50;5098713;27;46506;-62
2023/03/23 05:53:45;;;;;;;;;1.00;1.00;;;;;12.38;81.28;100035.34;5099252;27;45354;-62
2023/03/23 05:56:11;;;;;;;;;2.00;1.00;;;;;12.42;80.87;100044.03;5098365;27;45245;-62
2023/03/23 05:58:36;;;;;;;;;0.75;0.75;;;;;12.35;80.39;100049.53;5099151;27;45427;-62
2023/03/23 06:01:06;;;;;;;;;1.50;0.00;;;;;12.29;80.21;100048.94;5098911;27;45519;-62
2023/03/23 06:03:31;;;;;;;;;4.75;4.75;;;;;12.23;80.01;100049.19;5098719;27;45370;-62
2023/03/23 06:05:57;;;;;;;;;1.50;1.50;;;;;12.17;79.71;100047.69;5099041;27;45398;-62
2023/03/23 06:08:23;;;;;;;;;0.00;0.00;;;;;12.09;80.23;100052.41;5098922;27;45459;-62
2023/03/23 06:10:49;;;;;;;;;1.00;0.00;;;;;12.11;79.88;100058.47;5098467;27;46167;-62
2023/03/23 06:13:14;;;;;;;;;0.00;0.00;;;;;11.88;79.75;100020.66;5098517;27;45321;-62
2023/03/23 06:15:40;;;;;;;;;0.00;0.00;;;;;12.01;79.76;100053.56;5098712;27;45368;-62
2023/03/23 06:18:06;;;;;;;;;5.00;3.00;;;;;12.04;80.18;100068.41;5098875;27;45473;-62
2023/03/23 06:20:32;;;;;;;;;0.75;0.75;;;;;11.96;79.75;100059.94;5098470;27;46508;-62
2023/03/23 06:22:58;;;;;;;;;0.00;0.00;;;;;11.89;79.95;100061.91;5098563;27;45379;-62
2023/03/23 06:25:24;;;;;;;;;0.75;0.00;;;;;11.98;80.14;100079.19;5098800;27;45250;-62
2023/03/23 06:27:51;;;;;;;;;0.00;0.00;;;;;11.96;80.62;100068.69;5098673;27;45193;-62
2023/03/23 06:30:17;;;;;;;;;1.00;0.00;;;;;11.86;80.37;100054.13;5098029;27;46886;-62
2023/03/23 06:32:46;;;;;;;;;4.00;1.00;;;;;11.93;80.20;100063.56;5098551;27;45443;-62
2023/03/23 06:35:12;;;;;;;;;2.00;0.00;;;;;11.96;80.32;100067.84;5098369;27;45486;-62
2023/03/23 06:37:38;;;;;;;;;2.00;0.00;;;;;11.96;80.41;100065.22;5098654;27;45320;-62
2023/03/23 06:40:08;;;;;;;;;2.00;0.00;;;;;11.96;80.46;100071.34;5098156;27;46325;-62
2023/03/23 06:42:33;;;;;;;;;0.00;0.00;;;;;11.95;80.44;100074.91;5098241;27;45304;-62
2023/03/23 06:45:00;;;;;;;;;1.75;0.00;;;;;11.98;80.38;100077.44;5098472;27;45426;-62
2023/03/23 06:47:27;;;;;;;;;0.00;0.00;;;;;11.93;80.40;100063.56;5098527;27;45291;-62
2023/03/23 06:49:52;;;;;;;;;0.25;0.00;;;;;11.94;80.57;100060.00;5097760;27;46679;-62
2023/03/23 06:52:18;;;;;;;;;0.75;0.00;;;;;11.81;80.66;100048.19;5098051;27;45329;-62
2023/03/23 06:54:43;;;;;;;;;0.00;0.00;;;;;11.94;80.46;100072.34;5098310;27;45273;-62
2023/03/23 06:57:09;;;;;;;;;1.00;0.00;;;;;11.98;80.76;100079.19;5098523;27;45671;-62
2023/03/23 06:59:34;;;;;;;;;1.00;0.00;;;;;11.97;80.83;100078.34;5097395;27;45257;-62
2023/03/23 07:02:00;;;;;;;;;1.00;0.00;;;;;11.97;80.73;100082.78;5097904;27;45386;-62
2023/03/23 07:04:25;;;;;;;;;0.75;0.00;;;;;11.99;80.87;100089.69;5098135;27;45236;-62
2023/03/23 07:06:51;;;;;;;;;0.75;0.25;;;;;11.96;81.50;100088.97;5098252;27;45416;-62
2023/03/23 07:09:16;;;;;;;;;2.75;1.75;;;;;11.88;82.22;100081.31;5097949;27;45553;-62
2023/03/23 07:11:42;;;;;;;;;0.00;0.00;;;;;11.87;81.77;100087.50;5097769;27;45427;-62
2023/03/23 07:14:07;;;;;;;;;4.00;4.00;;;;;11.90;81.96;100091.81;5097430;27;45695;-62
2023/03/23 07:16:32;;;;;;;;;22.00;20.67;;;;;11.85;81.89;100082.28;5097932;27;45349;-62
2023/03/23 07:18:59;;;;;;;;;0.00;0.00;;;;;11.85;82.28;100086.72;5097778;27;46507;-62
2023/03/23 07:21:24;;;;;;;;;2.00;1.00;;;;;11.80;82.33;100097.41;5097798;27;45429;-62
2023/03/23 07:23:50;;;;;;;;;2.00;2.00;;;;;11.80;82.38;100102.69;5097892;27;45426;-63
2023/03/23 07:26:15;;;;;;;;;1.75;1.00;;;;;11.83;83.07;100107.00;5098029;27;45343;-63
2023/03/23 07:28:41;;;;;;;;;0.00;0.00;;;;;11.85;82.96;100110.47;5097414;27;47266;-63
2023/03/23 07:31:08;;;;;;;;;1.00;1.00;;;;;11.92;82.61;100101.41;5097314;27;45213;-62
2023/03/23 07:33:35;;;;;;;;;1.50;0.00;;;;;11.93;82.64;100087.28;5097721;27;45170;-63
2023/03/23 07:36:02;;;;;;;;;0.50;0.00;;;;;12.11;82.49;100092.75;5097780;27;45173;-63
2023/03/23 07:38:27;;;;;;;;;1.75;0.00;;;;;12.12;81.86;100055.75;5097411;27;46971;-63
2023/03/23 07:40:53;;;;;;;;;0.00;0.00;;;;;12.55;81.07;100103.31;5097286;27;45430;-62
2023/03/23 07:43:20;;;;;;;;;0.00;0.00;;;;;12.62;80.53;100101.25;5097744;27;45331;-62
2023/03/23 07:45:45;;;;;;;;;2.00;0.75;;;;;12.63;79.99;100095.06;5097483;27;45453;-62
2023/03/23 07:48:11;;;;;;;;;0.50;0.00;;;;;12.62;79.64;100095.97;5097142;27;46040;-63
2023/03/23 07:50:37;;;;;;;;;1.25;0.00;;;;;12.59;79.89;100093.47;5097221;27;45364;-62
2023/03/23 07:53:03;;;;;;;;;0.00;0.00;;;;;12.59;80.21;100106.69;5097451;27;46010;-62
2023/03/23 07:55:28;;;;;;;;;4.50;2.00;;;;;12.57;80.44;100104.09;5097652;27;45367;-62
2023/03/23 07:57:54;;;;;;;;;0.00;0.00;;;;;12.62;80.55;100115.34;5097304;27;46427;-64
2023/03/23 08:00:23;;;;;;;;;1.00;1.00;;;;;12.60;80.56;100111.03;5097081;27;45246;-65
2023/03/23 08:02:51;;;;;;;;;0.00;0.00;;;;;12.60;80.67;100108.41;5097352;27;45434;-65
2023/03/23 08:05:18;;;;;;;;;2.00;0.25;;;;;12.53;80.88;100100.75;5097648;27;45229;-65
2023/03/23 08:07:44;;;;;;;;;1.00;0.00;;;;;12.65;80.60;100109.06;5097030;27;47519;-65
2023/03/23 08:10:11;;;;;;;;;1.00;0.25;;;;;12.73;80.37;100100.81;5096880;27;45668;-65
2023/03/23 08:12:42;;;;;;;;;0.75;0.00;;;;;12.87;80.25;100107.25;5100836;27;45320;-65
2023/03/23 08:15:12;;;;;;;;;1.50;0.75;;;;;12.95;80.15;100117.47;5100631;27;45407;-65
2023/03/23 08:17:38;;;;;;;;;0.00;0.00;;;;;12.94;79.45;100115.78;5100515;27;46416;-63
2023/03/23 08:20:10;;;;;;;;;1.00;1.00;;;;;12.93;79.61;100111.41;5100361;27;45460;-64
2023/03/23 08:22:38;;;;;;;;;1.00;1.00;;;;;12.82;79.77;100084.56;5100467;27;45448;-63
2023/03/23 08:25:06;;;;;;;;;0.75;0.75;;;;;13.14;79.73;100128.13;5100652;27;45459;-63
2023/03/23 08:27:31;;;;;;;;;5.75;5.00;;;;;13.21;79.37;100129.56;5100003;27;46243;-63
2023/03/23 08:29:57;;;;;;;;;2.25;1.00;;;;;13.32;79.19;100133.53;5099947;27;45286;-63
2023/03/23 08:32:23;;;;;;;;;4.00;3.00;;;;;13.38;78.57;100120.06;5100372;27;45159;-63
2023/03/23 08:34:49;;;;;;;;;1.00;1.00;;;;;13.54;78.50;100136.13;5100615;27;45473;-63
2023/03/23 08:37:15;;;;;;;;;1.25;1.25;;;;;13.55;78.10;100130.75;5100142;27;46499;-62
2023/03/23 08:39:40;;;;;;;;;3.50;3.00;;;;;13.60;77.60;100130.53;5100040;27;45501;-63
2023/03/23 08:42:05;;;;;;;;;1.00;1.00;;;;;13.70;77.54;100128.34;5100410;27;45226;-62
2023/03/23 08:44:31;;;;;;;;;7.75;6.00;;;;;13.96;77.52;100126.28;5100445;27;45391;-63
2023/03/23 08:46:56;;;;;;;;;2.00;2.00;;;;;14.48;76.13;100138.78;5099883;27;46483;-63
2023/03/23 08:49:23;;;;;;;;;0.00;0.00;;;;;15.15;73.15;100146.03;5099834;27;45263;-63
2023/03/23 08:51:49;;;;;;;;;1.50;1.00;;;;;15.55;71.89;100142.25;5099967;27;45335;-63
2023/03/23 08:54:14;;;;;;;;;2.75;2.25;;;;;15.65;71.42;100148.78;5100156;27;45400;-63
2023/03/23 08:56:40;;;;;;;;;1.50;1.50;;;;;15.77;70.12;100141.94;5099857;27;45617;-63
2023/03/23 08:59:06;;;;;;;;;2.50;2.25;;;;;15.70;69.91;100141.44;5099915;27;45434;-63
2023/03/23 09:01:32;;;;;;;;;3.75;3.00;;;;;15.58;69.75;100134.13;5099922;27;45519;-63
2023/03/23 09:03:59;;;;;;;;;2.50;1.50;;;;;15.55;70.47;100140.44;5099812;27;45380;-63
2023/03/23 09:06:24;;;;;;;;;2.50;2.50;;;;;15.66;70.42;100135.41;5099391;27;47305;-62
2023/03/23 09:08:50;;;;;;;;;2.00;2.00;;;;;15.91;69.42;100142.06;5081513;27;45436;-63
2023/03/23 09:11:16;;;;;;;;;1.00;1.00;;;;;16.14;68.98;100138.16;5099783;27;45361;-63
2023/03/23 09:13:41;;;;;;;;;2.75;2.00;;;;;16.22;67.94;100112.97;5100032;27;45336;-63
2023/03/23 09:16:08;;;;;;;;;2.25;1.25;;;;;16.44;67.88;100144.47;5099258;27;45439;-63
2023/03/23 09:18:34;;;;;;;;;2.00;2.00;;;;;16.34;67.47;100142.34;5099666;27;45568;-63
2023/03/23 09:21:01;;;;;;;;;2.25;2.00;;;;;16.12;68.73;100145.38;5099768;27;45375;-63
2023/03/23 09:23:26;;;;;;;;;2.75;2.75;;;;;15.82;69.54;100142.59;5099675;27;45289;-63
2023/03/23 09:25:52;;;;;;;;;2.00;2.00;;;;;15.58;69.88;100135.00;5099479;27;46096;-62
2023/03/23 09:28:18;;;;;;;;;7.00;6.25;;;;;15.57;70.83;100135.91;5099604;27;45355;-62
2023/03/23 09:30:45;;;;;;;;;3.75;2.00;;;;;15.50;70.66;100123.91;5099128;27;45372;-62
2023/03/23 09:33:11;;;;;;;;;4.75;4.75;;;;;15.55;70.80;100121.84;5099762;27;45244;-62
2023/03/23 09:35:38;;;;;;;;;4.00;3.00;;;;;15.55;71.33;100111.25;5099086;27;46776;-62
2023/03/23 09:38:04;;;;;;;;;3.25;3.00;;;;;15.65;70.55;100108.97;5098964;27;45407;-62
2023/03/23 09:40:48;;;;;;;;;4.25;2.75;;;;;15.96;70.25;100128.53;5099456;27;45341;-62
2023/03/23 09:43:49;;;;;;;;;2.00;2.00;;;;;16.14;68.71;100116.06;5099670;27;45429;-62
2023/03/23 09:46:36;;;;;;;;;2.75;0.75;;;;;16.26;68.18;100120.66;5035673;28;46208;-62
2023/03/23 09:49:11;;;;;;;;;4.25;2.25;;;;;16.16;67.48;100108.84;5024208;28;45295;-62
2023/03/23 09:51:47;;;;;;;;;3.75;3.25;;;;;16.07;67.55;100130.63;5016011;28;45441;-62
2023/03/23 09:54:36;;;;;;;;;2.25;1.00;;;;;15.93;67.98;100134.91;5016165;28;45367;-62
2023/03/23 09:57:02;;;;;;;;;1.75;1.75;;;;;16.25;68.33;100142.00;5015539;28;46602;-62
2023/03/23 09:59:45;;;;;;;;;3.75;1.00;;;;;16.37;66.37;100138.66;5015983;28;45311;-62
2023/03/23 10:02:18;;;;;;;;;1.50;1.50;;;;;16.57;65.64;100140.19;5015737;28;45445;-62
2023/03/23 10:04:54;;;;;;;;;1.00;1.00;;;;;16.50;64.63;100137.03;5016259;28;45464;-62
2023/03/23 10:07:23;;;;;;;;;3.75;1.00;;;;;16.78;63.60;100140.72;5015526;28;46617;-62
2023/03/23 10:10:03;;;;;;;;;1.00;1.00;;;;;16.86;63.27;100134.94;5015537;28;45273;-62
2023/03/23 10:12:55;;;;;;;;;0.50;0.50;;;;;16.86;63.62;100108.38;5019853;28;45442;-62
2023/03/23 10:15:26;;;;;;;;;1.00;1.00;;;;;17.11;63.80;100149.50;5035675;28;45358;-62
2023/03/23 10:18:01;;;;;;;;;3.25;0.75;;;;;17.23;62.35;100140.78;5035545;28;46268;-62
2023/03/23 10:20:41;;;;;;;;;4.25;2.25;;;;;17.25;62.43;100154.00;5035229;28;45500;-62
2023/03/23 10:23:19;;;;;;;;;5.50;2.75;;;;;17.23;61.97;100144.28;5065847;28;45480;-63
2023/03/23 10:26:04;;;;;;;;;3.50;0.75;;;;;17.15;61.82;100143.03;5078253;28;45319;-62
2023/03/23 10:28:38;;;;;;;;;3.25;2.00;;;;;17.29;62.27;100142.22;5077724;28;45556;-62
2023/03/23 10:31:08;;;;;;;;;6.00;2.25;;;;;18.18;59.70;100133.16;5077886;28;45660;-62
2023/03/23 10:33:43;;;;;;;;;3.50;2.00;;;;;19.16;56.37;100136.50;5077459;28;45241;-62
2023/03/23 10:36:40;;;;;;;;;2.00;1.75;;;;;19.10;55.34;100136.91;5078104;28;45437;-62
2023/03/23 10:39:31;;;;;;;;;2.00;1.00;;;;;18.93;55.10;100135.38;5014991;28;46546;-62
2023/03/23 10:42:02;;;;;;;;;1.00;1.00;;;;;19.08;54.61;100137.03;4991566;28;45287;-62
2023/03/23 10:44:29;;;;;;;;;4.00;1.50;;;;;19.16;54.13;100122.31;4995611;28;45403;-62
2023/03/23 10:47:07;;;;;;;;;4.75;1.25;;;;;19.00;54.09;100134.00;5015130;28;45490;-62
2023/03/23 10:49:38;;;;;;;;;6.25;2.50;;;;;18.72;55.05;100132.31;5030769;28;45433;-62
2023/03/23 10:52:26;;;;;;;;;1.00;1.00;;;;;18.44;55.69;100134.13;5034459;28;46515;-62
2023/03/23 10:55:13;;;;;;;;;1.00;1.00;;;;;18.30;55.84;100131.50;5035077;28;45403;-62
2023/03/23 10:57:44;;;;;;;;;2.00;2.00;;;;;18.10;56.75;100139.00;5022417;28;45680;-66
2023/03/23 11:00:21;;;;;;;;;5.00;2.00;;;;;17.77;56.83;100150.78;5034209;28;45794;-64
2023/03/23 11:03:17;;;;;;;;;5.75;4.00;;;;;17.40;58.24;100139.78;5034950;28;45451;-63
2023/03/23 11:05:43;;;;;;;;;2.00;1.00;;;;;17.09;59.33;100135.44;5033795;28;45455;-63
2023/03/23 11:08:14;;;;;;;;;4.00;1.00;;;;;17.07;60.18;100127.56;5034943;28;45291;-63
2023/03/23 11:10:51;;;;;;;;;2.00;2.00;;;;;17.31;59.80;100137.66;5034087;28;46697;-63
2023/03/23 11:13:19;;;;;;;;;2.25;1.00;;;;;17.19;59.72;100117.97;5034366;28;45537;-64
2023/03/23 11:15:46;;;;;;;;;0.00;0.00;;;;;17.16;59.45;100128.81;5085472;27;45326;-64
2023/03/23 11:18:37;;;;;;;;;4.25;1.00;;;;;17.13;59.43;100132.50;5118587;27;45277;-64
2023/03/23 11:21:04;;;;;;;;;2.25;1.50;;;;;16.97;59.81;100127.22;5118210;27;46606;-64
2023/03/23 11:23:34;;;;;;;;;1.25;1.25;;;;;16.77;60.04;100125.72;5118079;27;45439;-63
2023/03/23 11:26:30;;;;;;;;;4.00;3.00;;;;;16.75;60.29;100140.91;5118315;27;45310;-64
2023/03/23 11:29:19;;;;;;;;;2.00;1.00;;;;;16.64;60.39;100138.00;5111869;27;45368;-64
2023/03/23 11:31:51;;;;;;;;;3.00;1.00;;;;;16.65;60.51;100134.41;5117812;27;46701;-64
2023/03/23 11:34:30;;;;;;;;;2.25;2.00;;;;;16.51;59.48;100128.09;5118090;27;45221;-64
2023/03/23 11:37:05;;;;;;;;;3.00;2.00;;;;;16.42;60.22;100141.91;5118217;27;45351;-64
2023/03/23 11:39:34;;;;;;;;;4.00;3.25;;;;;16.14;61.11;100085.03;5118269;27;45440;-64